Time;durP1;ratioP1;P1;durP2;ratioP2;P2;SDS_P1;SDS_P2;PMS_P1;PMS_P2;Temp;Humidity;BMP_temperature;BMP_pressure;BME280_temperature;BME280_humidity;BME280_pressure;Samples;Min_cycle;Max_cycle;Signal;HPM_P1;HPM_P2
2021/08/13 00:00:47;;;;;;;5.83;5.20;;;20.50;99.90;;;;;;5013652;28;20711;-78
2021/08/13 00:03:14;;;;;;;8.80;6.37;;;20.50;99.90;;;;;;5013357;28;20173;-78
2021/08/13 00:05:39;;;;;;;7.20;5.53;;;20.50;99.90;;;;;;5013540;28;20184;-78
2021/08/13 00:08:06;;;;;;;6.80;5.90;;;20.40;99.90;;;;;;5013377;28;20423;-78
2021/08/13 00:10:32;;;;;;;7.27;5.77;;;20.30;99.90;;;;;;5012106;28;20901;-77
2021/08/13 00:12:58;;;;;;;8.73;6.80;;;20.30;99.90;;;;;;5013097;28;20452;-78
2021/08/13 00:15:25;;;;;;;7.63;6.17;;;20.30;99.90;;;;;;5013014;28;20494;-77
2021/08/13 00:17:51;;;;;;;7.80;6.43;;;20.30;99.90;;;;;;5013319;28;20485;-76
2021/08/13 00:20:16;;;;;;;8.73;6.10;;;20.30;99.90;;;;;;5011981;28;20420;-78
2021/08/13 00:22:42;;;;;;;8.60;6.43;;;20.30;99.90;;;;;;5012057;28;20203;-77
2021/08/13 00:25:08;;;;;;;7.10;6.00;;;20.20;99.90;;;;;;5012774;28;20215;-78
2021/08/13 00:27:33;;;;;;;8.53;6.80;;;20.20;99.90;;;;;;5013446;28;20203;-78
2021/08/13 00:29:59;;;;;;;6.50;5.87;;;20.20;99.90;;;;;;5013027;28;20184;-78
2021/08/13 00:32:24;;;;;;;7.40;6.60;;;20.30;99.90;;;;;;5013354;28;20195;-78
2021/08/13 00:34:50;;;;;;;7.67;6.30;;;20.30;99.90;;;;;;5011891;28;20223;-78
2021/08/13 00:37:16;;;;;;;7.63;5.83;;;20.30;99.90;;;;;;5013122;28;20177;-78
2021/08/13 00:39:41;;;;;;;6.80;6.20;;;20.30;99.90;;;;;;5012878;28;20172;-78
2021/08/13 00:42:07;;;;;;;7.33;6.30;;;20.30;99.90;;;;;;5012918;28;20425;-78
2021/08/13 00:44:33;;;;;;;9.13;7.00;;;20.30;99.90;;;;;;5012590;28;20196;-78
2021/08/13 00:46:58;;;;;;;7.40;6.60;;;20.30;99.90;;;;;;5012880;28;20527;-77
2021/08/13 00:49:24;;;;;;;7.60;6.50;;;20.40;99.90;;;;;;5012696;28;20212;-78
2021/08/13 00:51:49;;;;;;;7.93;5.57;;;20.40;99.90;;;;;;5027929;28;20201;-78
2021/08/13 00:54:15;;;;;;;8.27;6.40;;;20.40;99.90;;;;;;5012489;28;20201;-77
2021/08/13 00:56:41;;;;;;;7.23;6.50;;;20.30;99.90;;;;;;5012820;28;20661;-77
2021/08/13 00:59:09;;;;;;;6.20;5.60;;;20.40;99.90;;;;;;5012785;28;20177;-77
2021/08/13 01:01:35;;;;;;;8.50;6.83;;;20.30;99.90;;;;;;5012850;28;20499;-77
2021/08/13 01:04:01;;;;;;;8.70;6.70;;;20.30;99.90;;;;;;5012498;28;20529;-77
2021/08/13 01:06:27;;;;;;;8.07;5.97;;;20.30;99.90;;;;;;5028136;28;20415;-78
2021/08/13 01:08:52;;;;;;;6.93;6.23;;;20.30;99.90;;;;;;5012328;28;20413;-77
2021/08/13 01:11:46;;;;;;;6.30;5.70;;;20.30;99.90;;;;;;5012705;28;20235;-78
2021/08/13 01:14:24;;;;;;;7.23;6.00;;;20.30;99.90;;;;;;5009461;28;20209;-78
2021/08/13 01:16:52;;;;;;;8.27;6.27;;;20.30;99.90;;;;;;5014145;28;20422;-79
2021/08/13 01:19:26;;;;;;;9.00;6.80;;;20.30;99.90;;;;;;5013819;28;20435;-79
2021/08/13 01:22:09;;;;;;;6.90;6.17;;;20.30;99.90;;;;;;5013684;28;20921;-78
2021/08/13 01:24:38;;;;;;;6.40;5.13;;;20.20;99.90;;;;;;5013578;28;20473;-79
2021/08/13 01:27:12;;;;;;;8.33;6.30;;;20.20;99.90;;;;;;5012271;28;20427;-78
2021/08/13 01:30:12;;;;;;;7.73;6.90;;;20.20;99.90;;;;;;5012347;28;20438;-78
2021/08/13 01:32:38;;;;;;;8.70;6.90;;;20.20;99.90;;;;;;5012302;28;20399;-78
2021/08/13 01:35:05;;;;;;;8.60;6.87;;;20.20;99.90;;;;;;5012370;28;20569;-78
2021/08/13 01:37:33;;;;;;;9.73;6.37;;;20.20;99.90;;;;;;5013142;28;20170;-78
2021/08/13 01:40:00;;;;;;;7.00;6.10;;;20.10;99.90;;;;;;5013545;28;20419;-78
2021/08/13 01:42:29;;;;;;;7.63;6.70;;;20.10;99.90;;;;;;5012357;28;20423;-77
2021/08/13 01:44:56;;;;;;;8.00;7.20;;;20.10;99.90;;;;;;5011716;28;20457;-77
2021/08/13 01:47:22;;;;;;;8.50;6.80;;;20.10;99.90;;;;;;5013345;28;21032;-78
2021/08/13 01:49:49;;;;;;;9.30;6.77;;;20.10;99.90;;;;;;5013725;28;20459;-78
2021/08/13 01:52:16;;;;;;;9.23;7.00;;;20.10;99.90;;;;;;5012637;28;20429;-77
2021/08/13 01:54:41;;;;;;;7.50;6.17;;;20.10;99.90;;;;;;5011793;28;20496;-78
2021/08/13 01:57:08;;;;;;;7.67;6.33;;;20.10;99.90;;;;;;5012102;28;20506;-78
2021/08/13 01:59:34;;;;;;;7.10;6.40;;;20.10;99.90;;;;;;5011866;28;20188;-77
2021/08/13 02:02:00;;;;;;;7.57;6.87;;;20.10;99.90;;;;;;5013311;28;20812;-78
2021/08/13 02:04:26;;;;;;;7.90;6.43;;;20.10;99.90;;;;;;5013047;28;20492;-76
2021/08/13 02:06:52;;;;;;;8.20;6.93;;;20.10;99.90;;;;;;5011876;28;20939;-78
2021/08/13 02:09:20;;;;;;;9.47;6.83;;;20.00;99.90;;;;;;5012087;28;20180;-77
2021/08/13 02:11:49;;;;;;;11.00;6.93;;;20.00;99.90;;;;;;5010735;28;20423;-77
2021/08/13 02:14:15;;;;;;;12.00;7.10;;;20.00;99.90;;;;;;5010095;28;20829;-76
2021/08/13 02:16:45;;;;;;;8.23;7.30;;;20.00;99.90;;;;;;5011914;28;20929;-77
2021/08/13 02:19:23;;;;;;;7.10;6.40;;;20.00;99.90;;;;;;5012714;28;20428;-78
2021/08/13 02:21:50;;;;;;;7.73;6.43;;;20.00;99.90;;;;;;5015973;28;20415;-78
2021/08/13 02:24:18;;;;;;;9.53;7.17;;;20.00;99.90;;;;;;5013893;28;20454;-78
2021/08/13 02:26:45;;;;;;;13.17;7.97;;;20.00;99.90;;;;;;5014058;28;20419;-78
2021/08/13 02:29:11;;;;;;;7.03;6.33;;;20.00;99.90;;;;;;5015295;28;20425;-78
2021/08/13 02:31:37;;;;;;;7.90;7.00;;;19.90;99.90;;;;;;5014864;28;20517;-78
2021/08/13 02:34:02;;;;;;;9.80;7.40;;;19.90;99.90;;;;;;5014496;28;20256;-78
2021/08/13 02:36:42;;;;;;;8.57;6.70;;;19.90;99.90;;;;;;5015835;28;20207;-77
2021/08/13 02:39:13;;;;;;;7.60;6.80;;;20.00;99.90;;;;;;5015203;28;20262;-77
2021/08/13 02:41:41;;;;;;;8.23;7.10;;;20.00;99.90;;;;;;5015056;28;20524;-77
2021/08/13 02:44:09;;;;;;;8.70;6.70;;;20.00;99.90;;;;;;5014722;28;20525;-76
2021/08/13 02:46:42;;;;;;;9.93;7.57;;;20.00;99.90;;;;;;5014966;28;20427;-77
2021/08/13 02:49:10;;;;;;;7.80;6.50;;;19.90;99.90;;;;;;5030300;28;20414;-77
2021/08/13 02:51:40;;;;;;;10.43;6.87;;;19.80;99.90;;;;;;5014837;28;20494;-77
2021/08/13 02:54:06;;;;;;;7.33;6.37;;;19.80;99.90;;;;;;5013967;28;20442;-77
2021/08/13 02:56:36;;;;;;;9.83;7.13;;;19.80;99.90;;;;;;5016610;28;20474;-77
2021/08/13 02:59:05;;;;;;;7.43;6.60;;;19.70;99.90;;;;;;5015744;28;20509;-79
2021/08/13 03:01:33;;;;;;;9.00;7.20;;;19.70;99.90;;;;;;5016723;28;20425;-79
2021/08/13 03:04:02;;;;;;;7.60;6.67;;;19.50;99.90;;;;;;5016293;28;20463;-79
2021/08/13 03:06:33;;;;;;;11.50;7.77;;;19.50;99.90;;;;;;5015271;28;20422;-79
2021/08/13 03:09:00;;;;;;;9.13;6.70;;;19.60;99.90;;;;;;5016977;28;20414;-79
2021/08/13 03:11:27;;;;;;;8.80;7.50;;;19.60;99.90;;;;;;5017255;28;20505;-78
2021/08/13 03:13:53;;;;;;;9.20;7.10;;;19.60;99.90;;;;;;5016605;28;20439;-79
2021/08/13 03:16:19;;;;;;;7.77;7.00;;;19.60;99.90;;;;;;5016985;28;20483;-79
2021/08/13 03:18:45;;;;;;;12.57;6.83;;;19.60;99.90;;;;;;5017333;28;20410;-79
2021/08/13 03:21:12;;;;;;;10.67;8.30;;;19.60;99.90;;;;;;5032741;28;20512;-79
2021/08/13 03:23:39;;;;;;;10.50;7.03;;;19.50;99.90;;;;;;5017507;28;20426;-79
2021/08/13 03:26:06;;;;;;;8.17;7.20;;;19.60;99.90;;;;;;5017776;28;20437;-79
2021/08/13 03:28:33;;;;;;;9.30;7.50;;;19.60;99.90;;;;;;5017846;28;20415;-79
2021/08/13 03:30:58;;;;;;;8.27;7.43;;;19.60;99.90;;;;;;5015972;28;20421;-78
2021/08/13 03:33:24;;;;;;;8.20;6.43;;;19.60;99.90;;;;;;5014927;28;20444;-77
2021/08/13 03:35:50;;;;;;;8.90;7.00;;;19.60;99.90;;;;;;5015175;28;20229;-78
2021/08/13 03:38:15;;;;;;;8.83;7.50;;;19.60;99.90;;;;;;5013371;28;20312;-77
2021/08/13 03:40:41;;;;;;;9.00;7.43;;;19.70;99.90;;;;;;5014128;28;20182;-79
2021/08/13 03:43:06;;;;;;;7.87;7.07;;;19.60;99.90;;;;;;5013746;28;20181;-79
2021/08/13 03:45:32;;;;;;;9.37;7.57;;;19.70;99.90;;;;;;5013665;28;20186;-78
2021/08/13 03:47:57;;;;;;;8.23;7.33;;;19.70;99.90;;;;;;5013797;28;20176;-78
2021/08/13 03:50:23;;;;;;;8.80;7.30;;;19.70;99.90;;;;;;5013678;28;20186;-78
2021/08/13 03:52:49;;;;;;;9.20;7.50;;;19.60;99.90;;;;;;5013871;28;20175;-77
2021/08/13 03:55:15;;;;;;;7.73;6.90;;;19.60;99.90;;;;;;5013183;28;20320;-78
2021/08/13 03:57:41;;;;;;;8.80;7.33;;;19.50;99.90;;;;;;5012378;28;20197;-78
2021/08/13 04:00:08;;;;;;;9.63;7.70;;;19.40;99.90;;;;;;5013666;28;20414;-78
2021/08/13 04:02:33;;;;;;;10.40;6.80;;;19.40;99.90;;;;;;5013450;28;20506;-78
2021/08/13 04:04:59;;;;;;;8.27;7.47;;;19.40;99.90;;;;;;5013471;28;20464;-78
2021/08/13 04:07:24;;;;;;;9.33;8.37;;;19.50;99.90;;;;;;5023338;28;20216;-78
2021/08/13 04:09:50;;;;;;;10.30;7.57;;;19.50;99.90;;;;;;5023257;28;20190;-79
2021/08/13 04:12:15;;;;;;;10.43;6.70;;;19.50;99.90;;;;;;5014452;28;20206;-79
2021/08/13 04:14:41;;;;;;;9.53;8.53;;;19.50;99.90;;;;;;5014379;28;20294;-79
2021/08/13 04:17:06;;;;;;;13.17;9.80;;;19.60;99.90;;;;;;5014764;28;20178;-78
2021/08/13 04:19:32;;;;;;;8.10;7.30;;;19.70;99.90;;;;;;5013390;28;20180;-78
2021/08/13 04:21:57;;;;;;;11.40;7.40;;;19.70;99.90;;;;;;5014624;28;20186;-78
2021/08/13 04:24:23;;;;;;;9.33;8.10;;;19.60;99.90;;;;;;5014312;28;20194;-79
2021/08/13 04:26:49;;;;;;;8.80;7.07;;;19.60;99.90;;;;;;5013286;28;20183;-79
2021/08/13 04:29:14;;;;;;;8.73;7.30;;;19.70;99.90;;;;;;5014192;28;20672;-78
2021/08/13 04:31:40;;;;;;;9.37;7.70;;;19.70;99.90;;;;;;5013612;28;20189;-77
2021/08/13 04:34:05;;;;;;;9.63;7.83;;;19.70;99.90;;;;;;5012953;28;20668;-77
2021/08/13 04:36:32;;;;;;;6.90;6.03;;;19.70;99.90;;;;;;5028194;28;20643;-77
2021/08/13 04:38:57;;;;;;;13.10;8.13;;;19.70;99.90;;;;;;5013023;28;20201;-78
2021/08/13 04:41:23;;;;;;;9.50;7.47;;;19.70;99.90;;;;;;5014168;28;20409;-79
2021/08/13 04:43:48;;;;;;;9.87;7.83;;;19.70;99.90;;;;;;5012502;28;20200;-79
2021/08/13 04:46:14;;;;;;;9.33;8.37;;;19.80;99.90;;;;;;5012678;28;20275;-78
2021/08/13 04:48:40;;;;;;;7.87;6.80;;;19.80;99.90;;;;;;5012682;28;20261;-78
2021/08/13 04:51:05;;;;;;;10.80;8.07;;;19.80;99.90;;;;;;5012603;28;20186;-78
2021/08/13 04:53:31;;;;;;;8.10;7.30;;;19.70;99.90;;;;;;5013082;28;20206;-79
2021/08/13 04:55:56;;;;;;;9.27;8.47;;;19.70;99.90;;;;;;5028192;28;20213;-78
2021/08/13 04:58:22;;;;;;;9.50;8.47;;;19.70;99.90;;;;;;5013053;28;20171;-79
2021/08/13 05:00:48;;;;;;;9.57;8.23;;;19.70;99.90;;;;;;5012848;28;20609;-79
2021/08/13 05:03:14;;;;;;;9.90;8.03;;;19.70;99.90;;;;;;5010582;28;20614;-79
2021/08/13 05:05:41;;;;;;;8.90;7.27;;;19.70;99.90;;;;;;5010843;28;20428;-78
2021/08/13 05:08:07;;;;;;;9.80;7.20;;;19.80;99.90;;;;;;5012163;28;20423;-78
2021/08/13 05:10:32;;;;;;;8.37;7.50;;;19.70;99.90;;;;;;5012315;28;20449;-78
2021/08/13 05:12:58;;;;;;;9.57;8.57;;;19.70;99.90;;;;;;5012174;28;20483;-78
2021/08/13 05:15:24;;;;;;;11.40;8.57;;;19.80;99.90;;;;;;5020886;28;20296;-77
2021/08/13 05:17:49;;;;;;;9.23;8.33;;;19.80;99.90;;;;;;5015631;28;20633;-76
2021/08/13 05:20:15;;;;;;;13.70;9.17;;;19.80;99.90;;;;;;5031376;28;20178;-77
2021/08/13 05:22:41;;;;;;;8.37;7.47;;;19.80;99.90;;;;;;5022585;28;20174;-78
2021/08/13 05:25:11;;;;;;;8.17;7.17;;;19.90;99.90;;;;;;5010805;28;20260;-77
2021/08/13 05:27:37;;;;;;;11.13;8.10;;;19.90;99.90;;;;;;4995996;28;20205;-78
2021/08/13 05:30:07;;;;;;;13.70;8.70;;;19.90;99.90;;;;;;5003929;28;20424;-77
2021/08/13 05:32:38;;;;;;;9.00;7.90;;;19.90;99.90;;;;;;5014990;28;20422;-78
2021/08/13 05:35:04;;;;;;;11.07;8.20;;;19.90;99.90;;;;;;5006941;28;20914;-78
2021/08/13 05:37:29;;;;;;;11.53;7.63;;;19.90;99.90;;;;;;5007979;28;20462;-78
2021/08/13 05:39:55;;;;;;;10.53;7.70;;;19.90;99.90;;;;;;5013057;28;20433;-79
2021/08/13 05:42:20;;;;;;;11.90;7.87;;;19.90;99.90;;;;;;5013638;28;20722;-80
2021/08/13 05:44:46;;;;;;;9.70;8.00;;;19.90;99.90;;;;;;5011329;28;20756;-78
2021/08/13 05:47:11;;;;;;;12.20;8.40;;;19.90;99.90;;;;;;4993121;28;20207;-78
2021/08/13 05:49:37;;;;;;;10.10;8.30;;;19.90;99.90;;;;;;5012554;28;20177;-79
2021/08/13 05:52:03;;;;;;;12.70;9.50;;;19.90;99.90;;;;;;5012062;28;20175;-78
2021/08/13 05:54:30;;;;;;;13.50;9.30;;;19.80;99.90;;;;;;4994433;28;20211;-78
2021/08/13 05:56:56;;;;;;;13.63;9.03;;;19.80;99.90;;;;;;5005958;28;20435;-77
2021/08/13 05:59:25;;;;;;;16.70;11.60;;;19.80;99.90;;;;;;5015374;28;20411;-77
2021/08/13 06:01:50;;;;;;;16.20;9.93;;;19.90;99.90;;;;;;5017398;28;20192;-79
2021/08/13 06:04:16;;;;;;;10.30;8.67;;;20.10;99.90;;;;;;5016922;28;20435;-78
2021/08/13 06:06:43;;;;;;;11.43;8.60;;;20.50;99.90;;;;;;5016072;28;20264;-78
2021/08/13 06:09:09;;;;;;;10.97;8.87;;;20.70;99.90;;;;;;4999433;28;20189;-78
2021/08/13 06:11:34;;;;;;;17.13;9.00;;;21.00;99.90;;;;;;5015409;28;20428;-79
2021/08/13 06:14:00;;;;;;;11.50;9.37;;;21.40;99.90;;;;;;5015325;28;20524;-78
2021/08/13 06:16:25;;;;;;;13.90;8.77;;;21.70;99.90;;;;;;5016478;28;20206;-79
2021/08/13 06:18:51;;;;;;;9.37;8.33;;;21.90;99.90;;;;;;5016934;28;20181;-79
2021/08/13 06:21:19;;;;;;;14.93;9.80;;;22.00;99.90;;;;;;5018404;28;20521;-80
2021/08/13 06:23:45;;;;;;;16.43;9.73;;;22.30;99.90;;;;;;5016296;28;20285;-80
2021/08/13 06:26:11;;;;;;;16.43;11.80;;;22.50;99.90;;;;;;5015334;28;20751;-79
2021/08/13 06:28:38;;;;;;;14.17;10.90;;;22.80;99.90;;;;;;5005917;28;20193;-80
2021/08/13 06:31:03;;;;;;;15.50;11.20;;;23.00;99.90;;;;;;5015364;28;20432;-79
2021/08/13 06:33:29;;;;;;;11.17;9.73;;;23.10;99.90;;;;;;5015242;28;20796;-79
2021/08/13 06:35:55;;;;;;;11.40;9.53;;;23.20;99.90;;;;;;5014121;28;20201;-79
2021/08/13 06:38:20;;;;;;;12.57;8.80;;;23.20;99.90;;;;;;5014573;28;20645;-79
2021/08/13 06:40:46;;;;;;;12.23;9.10;;;23.30;99.90;;;;;;5009710;28;20174;-79
2021/08/13 06:43:11;;;;;;;14.50;9.43;;;23.50;99.90;;;;;;5004670;28;20262;-78
2021/08/13 06:45:37;;;;;;;10.27;8.57;;;23.50;99.90;;;;;;5015099;28;20632;-79
2021/08/13 06:48:03;;;;;;;11.77;8.90;;;23.60;99.90;;;;;;5013251;28;20645;-79
2021/08/13 06:50:29;;;;;;;9.90;8.87;;;23.80;99.90;;;;;;5013356;28;20186;-80
2021/08/13 06:52:54;;;;;;;9.77;8.60;;;23.80;99.90;;;;;;5007860;28;20476;-79
2021/08/13 06:55:20;;;;;;;10.50;7.97;;;24.00;99.90;;;;;;5014142;28;21058;-79
2021/08/13 06:57:46;;;;;;;10.00;8.60;;;24.10;99.90;;;;;;5014483;28;20235;-80
2021/08/13 07:00:13;;;;;;;10.20;8.47;;;24.10;99.90;;;;;;5002990;28;20435;-80
2021/08/13 07:02:40;;;;;;;10.83;9.37;;;24.10;99.90;;;;;;5015131;28;20204;-79
2021/08/13 07:05:06;;;;;;;10.00;9.00;;;24.20;99.90;;;;;;4998016;28;20453;-79
2021/08/13 07:07:31;;;;;;;12.17;8.17;;;24.30;99.90;;;;;;5015724;28;20436;-80
2021/08/13 07:09:58;;;;;;;9.37;8.40;;;24.50;99.90;;;;;;5015186;28;20444;-80
2021/08/13 07:12:24;;;;;;;9.27;7.70;;;24.60;99.90;;;;;;5012230;28;20252;-79
2021/08/13 07:14:52;;;;;;;10.37;6.70;;;24.60;99.90;;;;;;5000389;28;20464;-80
2021/08/13 07:17:18;;;;;;;10.43;7.30;;;24.60;99.90;;;;;;5015389;28;20421;-78
2021/08/13 07:19:43;;;;;;;8.97;7.47;;;24.70;99.90;;;;;;4994419;28;20429;-81
2021/08/13 07:22:09;;;;;;;7.70;6.90;;;24.80;99.90;;;;;;5013670;28;20190;-79
2021/08/13 07:24:34;;;;;;;8.53;7.40;;;24.90;99.90;;;;;;5013969;28;20630;-78
2021/08/13 07:27:00;;;;;;;12.30;8.93;;;25.00;99.90;;;;;;5017123;28;20178;-81
2021/08/13 07:29:26;;;;;;;6.97;6.20;;;25.00;99.90;;;;;;5014572;28;20182;-81
2021/08/13 07:31:53;;;;;;;10.03;7.57;;;25.00;99.90;;;;;;5014470;28;20510;-79
2021/08/13 07:34:19;;;;;;;8.97;6.83;;;25.10;99.90;;;;;;5015868;28;20743;-80
2021/08/13 07:36:44;;;;;;;7.73;6.70;;;25.10;99.90;;;;;;5016297;28;20452;-79
2021/08/13 07:39:10;;;;;;;8.27;6.90;;;25.00;99.90;;;;;;5016069;28;20192;-80
2021/08/13 07:41:35;;;;;;;8.93;7.10;;;25.20;99.90;;;;;;5014921;28;20185;-79
2021/08/13 07:44:01;;;;;;;14.70;6.80;;;25.20;99.90;;;;;;5016019;28;20731;-79
2021/08/13 07:46:26;;;;;;;7.40;6.70;;;25.20;99.90;;;;;;5016625;28;20277;-79
2021/08/13 07:48:52;;;;;;;8.93;7.20;;;25.30;99.90;;;;;;5014437;28;20174;-80
2021/08/13 07:51:17;;;;;;;11.03;6.90;;;25.40;99.90;;;;;;5015950;28;20162;-79
2021/08/13 07:53:43;;;;;;;9.03;7.67;;;25.50;99.90;;;;;;5014398;28;20198;-80
2021/08/13 07:56:09;;;;;;;9.80;6.80;;;25.50;99.90;;;;;;4998434;28;20209;-80
2021/08/13 07:58:36;;;;;;;6.63;6.00;;;25.60;99.90;;;;;;5014686;28;20228;-79
2021/08/13 08:01:01;;;;;;;7.10;6.40;;;25.60;99.90;;;;;;5016324;28;20170;-78
2021/08/13 08:03:27;;;;;;;8.27;6.87;;;25.60;99.90;;;;;;5015367;28;20482;-79
2021/08/13 08:05:53;;;;;;;10.00;7.10;;;25.50;99.90;;;;;;5015467;28;20181;-79
2021/08/13 08:08:18;;;;;;;8.70;7.70;;;25.50;99.90;;;;;;5014330;28;20184;-80
2021/08/13 08:10:47;;;;;;;9.03;8.03;;;25.40;99.90;;;;;;5014224;28;20177;-78
2021/08/13 08:13:14;;;;;;;7.53;6.47;;;25.30;99.90;;;;;;5015992;28;20179;-80
2021/08/13 08:15:40;;;;;;;8.33;6.63;;;25.40;99.90;;;;;;5015515;28;20460;-81
2021/08/13 08:18:06;;;;;;;10.00;7.50;;;25.40;99.90;;;;;;5015638;28;20409;-79
2021/08/13 08:20:31;;;;;;;7.20;6.30;;;25.40;99.90;;;;;;5014452;28;20256;-79
2021/08/13 08:22:57;;;;;;;8.13;6.77;;;25.40;99.90;;;;;;5015269;28;20679;-79
2021/08/13 08:25:22;;;;;;;6.60;6.00;;;25.30;99.90;;;;;;5014097;28;20246;-79
2021/08/13 08:27:48;;;;;;;7.73;7.00;;;25.30;99.90;;;;;;5013925;28;20257;-80
2021/08/13 08:30:16;;;;;;;7.70;7.00;;;25.30;99.90;;;;;;5015472;28;20181;-79
2021/08/13 08:32:41;;;;;;;7.33;6.40;;;25.30;99.90;;;;;;5015581;28;20251;-79
2021/08/13 08:35:07;;;;;;;6.63;5.87;;;25.30;99.90;;;;;;5014902;28;20460;-79
2021/08/13 08:37:33;;;;;;;10.60;7.57;;;25.40;99.90;;;;;;5014159;28;20556;-81
2021/08/13 08:39:58;;;;;;;9.00;6.70;;;25.40;99.90;;;;;;5013904;28;20592;-80
2021/08/13 08:42:24;;;;;;;8.77;6.10;;;25.40;99.90;;;;;;5015512;28;20177;-80
2021/08/13 08:44:50;;;;;;;7.10;6.30;;;25.30;99.90;;;;;;5013191;28;20577;-80
2021/08/13 08:47:19;;;;;;;9.47;8.47;;;25.30;99.90;;;;;;5014792;28;20204;-80
2021/08/13 08:49:47;;;;;;;8.47;7.03;;;25.30;99.90;;;;;;5015188;28;20566;-80
2021/08/13 08:52:14;;;;;;;6.60;6.00;;;25.30;99.90;;;;;;5013567;28;20424;-79
2021/08/13 08:54:42;;;;;;;9.30;7.30;;;25.30;99.90;;;;;;4996723;28;20460;-80
2021/08/13 08:57:08;;;;;;;11.10;5.93;;;25.30;99.90;;;;;;5013852;28;20424;-79
2021/08/13 08:59:34;;;;;;;9.50;5.80;;;25.30;99.90;;;;;;5014072;28;20779;-79
2021/08/13 09:02:00;;;;;;;7.40;6.27;;;25.30;99.90;;;;;;4996610;28;20297;-78
2021/08/13 09:04:26;;;;;;;6.40;5.63;;;25.30;99.90;;;;;;5013842;28;20201;-80
2021/08/13 09:06:54;;;;;;;7.33;6.13;;;25.40;99.90;;;;;;5015533;28;20420;-79
2021/08/13 09:09:20;;;;;;;6.03;5.47;;;25.40;99.90;;;;;;5014005;28;20525;-80
2021/08/13 09:11:46;;;;;;;6.30;5.40;;;25.40;99.90;;;;;;5014885;28;20838;-79
2021/08/13 09:14:14;;;;;;;5.97;5.37;;;25.50;99.90;;;;;;5014901;28;20249;-79
2021/08/13 09:16:59;;;;;;;7.63;6.47;;;25.50;99.90;;;;;;5013216;28;20555;-80
2021/08/13 09:19:37;;;;;;;6.93;6.23;;;25.60;99.90;;;;;;5013637;28;20420;-80
2021/08/13 09:22:08;;;;;;;6.67;5.23;;;25.60;99.90;;;;;;5015067;28;20409;-80
2021/08/13 09:24:37;;;;;;;6.20;5.53;;;25.60;99.90;;;;;;5014347;28;20767;-79
2021/08/13 09:27:16;;;;;;;6.70;6.00;;;25.70;99.90;;;;;;5015485;28;20413;-79
2021/08/13 09:30:09;;;;;;;6.80;5.80;;;25.80;99.90;;;;;;5016930;28;20515;-80
2021/08/13 09:32:35;;;;;;;6.27;5.07;;;25.80;99.90;;;;;;5019010;28;20413;-80
2021/08/13 09:35:02;;;;;;;7.73;6.07;;;25.90;99.90;;;;;;5017833;28;20979;-79
2021/08/13 09:37:28;;;;;;;6.20;5.53;;;26.00;99.90;;;;;;5018640;28;20415;-78
2021/08/13 09:39:56;;;;;;;7.30;6.17;;;26.10;99.90;;;;;;5017964;28;20397;-80
2021/08/13 09:42:37;;;;;;;5.67;5.00;;;26.10;99.90;;;;;;5018212;28;20177;-79
2021/08/13 09:45:06;;;;;;;9.10;7.47;;;26.30;99.90;;;;;;5017257;28;20452;-80
2021/08/13 09:47:46;;;;;;;8.40;6.37;;;26.30;99.90;;;;;;5016831;28;20421;-80
2021/08/13 09:50:15;;;;;;;7.27;6.00;;;26.20;99.90;;;;;;5016774;28;20935;-80
2021/08/13 09:52:41;;;;;;;7.23;5.00;;;26.30;99.90;;;;;;5016243;28;20491;-79
2021/08/13 09:55:13;;;;;;;6.93;6.23;;;26.40;99.90;;;;;;5015829;28;20554;-80
2021/08/13 09:57:43;;;;;;;8.53;6.43;;;26.50;99.90;;;;;;5016017;28;20443;-80
2021/08/13 10:00:10;;;;;;;6.80;5.70;;;26.50;99.90;;;;;;5015997;28;20471;-80
2021/08/13 10:02:38;;;;;;;5.13;4.63;;;26.50;99.90;;;;;;4999906;28;20898;-79
2021/08/13 10:05:26;;;;;;;5.53;4.50;;;26.50;99.90;;;;;;5017147;28;20825;-79
2021/08/13 10:07:54;;;;;;;5.97;4.80;;;26.60;99.90;;;;;;4999963;28;20424;-80
2021/08/13 10:10:27;;;;;;;6.10;5.40;;;26.60;99.90;;;;;;5017782;28;20415;-79
2021/08/13 10:12:53;;;;;;;7.03;5.30;;;26.60;99.90;;;;;;5017364;28;20421;-78
2021/08/13 10:15:28;;;;;;;6.47;5.40;;;26.60;99.90;;;;;;5017892;28;20466;-79
2021/08/13 10:17:56;;;;;;;5.30;4.63;;;26.60;99.90;;;;;;5016210;28;20413;-80
2021/08/13 10:20:24;;;;;;;6.37;4.70;;;26.60;99.90;;;;;;5017109;28;20443;-80
2021/08/13 10:22:49;;;;;;;7.23;5.37;;;26.50;99.90;;;;;;5016110;28;20413;-78
2021/08/13 10:25:16;;;;;;;5.17;4.67;;;26.50;99.90;;;;;;5016407;28;20878;-80
2021/08/13 10:27:42;;;;;;;5.93;5.33;;;26.60;99.90;;;;;;5016732;28;20232;-79
2021/08/13 10:30:08;;;;;;;4.57;4.13;;;26.60;99.90;;;;;;5015431;28;20417;-78
2021/08/13 10:32:36;;;;;;;5.43;4.37;;;26.60;99.90;;;;;;5017271;28;20166;-79
2021/08/13 10:35:02;;;;;;;5.13;4.37;;;26.70;99.90;;;;;;5014885;28;20546;-79
2021/08/13 10:37:30;;;;;;;5.80;4.93;;;26.70;99.90;;;;;;5015584;28;20476;-78
2021/08/13 10:39:56;;;;;;;5.20;3.80;;;26.70;99.90;;;;;;5015698;28;20305;-79
2021/08/13 10:42:26;;;;;;;4.97;4.10;;;26.80;99.90;;;;;;5014974;28;20902;-78
2021/08/13 10:45:02;;;;;;;6.00;4.20;;;26.80;99.90;;;;;;5014373;28;20210;-79
2021/08/13 10:47:35;;;;;;;4.47;3.80;;;26.90;99.90;;;;;;5015068;28;20508;-78
2021/08/13 10:50:02;;;;;;;3.83;3.50;;;27.00;99.90;;;;;;5014355;28;20432;-80
2021/08/13 10:52:37;;;;;;;5.57;4.33;;;27.00;99.90;;;;;;5015848;28;20511;-79
2021/08/13 10:55:08;;;;;;;6.07;4.63;;;27.00;99.90;;;;;;5014261;28;20480;-79
2021/08/13 10:57:48;;;;;;;6.33;4.70;;;27.00;99.90;;;;;;5014946;28;20425;-78
2021/08/13 11:00:16;;;;;;;5.10;4.23;;;27.10;99.90;;;;;;5016468;28;20405;-78
2021/08/13 11:03:13;;;;;;;4.73;4.23;;;27.20;99.90;;;;;;5014536;28;20409;-77
2021/08/13 11:05:55;;;;;;;5.30;4.07;;;27.20;99.90;;;;;;5014743;28;20445;-77
2021/08/13 11:08:21;;;;;;;9.93;4.60;;;27.30;99.90;;;;;;5028130;28;20417;-78
2021/08/13 11:10:47;;;;;;;6.03;4.60;;;27.30;99.90;;;;;;5019630;28;20552;-78
2021/08/13 11:13:14;;;;;;;7.27;5.27;;;27.40;99.90;;;;;;5015156;28;20433;-78
2021/08/13 11:15:39;;;;;;;9.70;7.83;;;27.40;99.90;;;;;;5013439;28;20599;-78
2021/08/13 11:18:35;;;;;;;8.73;6.30;;;27.40;99.90;;;;;;5014230;28;20496;-77
2021/08/13 11:21:03;;;;;;;8.20;5.90;;;27.40;99.90;;;;;;5016252;28;20512;-80
2021/08/13 11:23:29;;;;;;;8.63;5.37;;;27.40;99.90;;;;;;5016563;28;20998;-79
2021/08/13 11:25:56;;;;;;;5.93;4.90;;;27.40;99.90;;;;;;5016101;28;20421;-79
2021/08/13 11:28:23;;;;;;;9.40;5.43;;;27.40;99.90;;;;;;5015990;28;20469;-80
2021/08/13 11:30:50;;;;;;;8.80;7.57;;;27.40;99.90;;;;;;5016222;28;20417;-81
2021/08/13 11:33:25;;;;;;;6.77;5.30;;;27.50;99.90;;;;;;5015326;28;20895;-81
2021/08/13 11:35:51;;;;;;;6.13;4.57;;;27.50;99.90;;;;;;5021306;28;20502;-80
2021/08/13 11:38:42;;;;;;;7.50;5.67;;;27.60;99.90;;;;;;5016476;28;20495;-80
2021/08/13 11:41:34;;;;;;;6.77;4.90;;;27.70;99.90;;;;;;5017092;28;20935;-80
2021/08/13 11:44:00;;;;;;;6.50;4.57;;;27.80;99.90;;;;;;5014571;28;20457;-80
2021/08/13 11:46:27;;;;;;;5.37;4.60;;;27.90;99.90;;;;;;5015811;28;20460;-80
2021/08/13 11:48:58;;;;;;;7.60;5.90;;;27.90;99.90;;;;;;5015367;28;20421;-79
2021/08/13 11:51:25;;;;;;;7.73;5.93;;;27.90;99.90;;;;;;5015097;28;20405;-79
2021/08/13 11:53:51;;;;;;;5.00;4.50;;;27.80;99.90;;;;;;5013790;28;20440;-78
2021/08/13 11:56:23;;;;;;;5.93;4.37;;;27.80;99.90;;;;;;5016175;28;20488;-80
2021/08/13 11:59:00;;;;;;;14.67;4.70;;;27.80;99.90;;;;;;5014997;28;20470;-79
2021/08/13 12:01:26;;;;;;;13.00;5.83;;;27.90;99.90;;;;;;4998764;28;20408;-80
2021/08/13 12:03:53;;;;;;;6.10;5.03;;;27.90;99.90;;;;;;5014694;28;20441;-78
2021/08/13 12:06:19;;;;;;;7.40;5.87;;;27.80;99.90;;;;;;5014456;28;20421;-79
2021/08/13 12:08:48;;;;;;;6.00;4.93;;;27.90;99.90;;;;;;5014543;28;20417;-80
2021/08/13 12:11:23;;;;;;;6.80;4.90;;;27.90;99.90;;;;;;5014162;28;20176;-79
2021/08/13 12:13:48;;;;;;;6.03;4.80;;;27.90;99.90;;;;;;5015848;28;20432;-79
2021/08/13 12:16:18;;;;;;;6.10;5.10;;;28.00;99.90;;;;;;5014382;28;20823;-79
2021/08/13 12:18:44;;;;;;;6.50;5.10;;;28.00;99.30;;;;;;5015433;28;20166;-78
2021/08/13 12:21:10;;;;;;;6.50;5.43;;;28.00;99.90;;;;;;5015118;28;20421;-80
2021/08/13 12:23:36;;;;;;;5.53;5.03;;;28.10;99.90;;;;;;5014695;28;20457;-80
2021/08/13 12:26:03;;;;;;;6.20;5.10;;;28.10;99.90;;;;;;5011680;28;20182;-78
2021/08/13 12:28:31;;;;;;;7.67;5.50;;;28.10;99.90;;;;;;5029589;28;20641;-78
2021/08/13 12:31:05;;;;;;;7.20;5.83;;;28.00;99.80;;;;;;5030492;28;20959;-80
2021/08/13 12:33:30;;;;;;;6.90;5.77;;;28.00;99.90;;;;;;5010716;28;20452;-79
2021/08/13 12:35:56;;;;;;;6.93;5.57;;;28.10;99.90;;;;;;5014656;28;20464;-80
2021/08/13 12:38:33;;;;;;;6.40;5.00;;;28.20;99.50;;;;;;4980451;28;20220;-80
2021/08/13 12:40:59;;;;;;;5.40;4.87;;;28.30;98.30;;;;;;5013008;28;20185;-79
2021/08/13 12:43:25;;;;;;;7.97;5.67;;;28.30;97.20;;;;;;5014914;28;20680;-79
2021/08/13 12:45:52;;;;;;;6.83;6.13;;;28.30;97.30;;;;;;5013051;28;20448;-79
2021/08/13 12:48:23;;;;;;;7.00;5.80;;;28.30;96.90;;;;;;5015632;28;20417;-80